createdAt,value
2023-07-24T00:02:12.130Z,36.10
2023-07-24T00:04:41.676Z,36.10
2023-07-24T00:07:09.956Z,36.30
2023-07-24T00:09:38.174Z,36.40
2023-07-24T00:12:07.918Z,36.30
2023-07-24T00:14:36.354Z,36.40
2023-07-24T00:17:04.730Z,36.40
2023-07-24T00:19:32.979Z,36.50
2023-07-24T00:22:02.772Z,36.60
2023-07-24T00:24:33.055Z,36.70
2023-07-24T00:27:01.222Z,36.70
2023-07-24T00:29:29.338Z,36.80
2023-07-24T00:31:57.491Z,36.90
2023-07-24T00:34:28.388Z,36.90
2023-07-24T00:36:57.760Z,36.80
2023-07-24T00:39:29.416Z,36.80
2023-07-24T00:41:58.919Z,36.90
2023-07-24T00:44:27.051Z,36.90
2023-07-24T00:46:56.611Z,36.90
2023-07-24T00:49:24.954Z,36.90
2023-07-24T00:51:54.684Z,37.00
2023-07-24T00:54:24.593Z,37.30
2023-07-24T00:56:54.104Z,37.40
2023-07-24T00:59:23.243Z,37.30
2023-07-24T01:01:51.735Z,37.30
2023-07-24T01:04:20.632Z,37.40
2023-07-24T01:06:48.854Z,37.50
2023-07-24T01:09:17.185Z,37.40
2023-07-24T01:11:49.855Z,37.50
2023-07-24T01:14:25.605Z,37.60
2023-07-24T01:16:58.086Z,37.90
2023-07-24T01:19:39.451Z,37.70
2023-07-24T01:22:17.702Z,38.10
2023-07-24T01:25:03.116Z,37.90
2023-07-24T01:27:32.651Z,38.10
2023-07-24T01:30:00.842Z,37.90
2023-07-24T01:32:29.137Z,37.80
2023-07-24T01:34:57.438Z,37.90
2023-07-24T01:37:27.812Z,37.90
2023-07-24T01:39:57.534Z,38.10
2023-07-24T01:42:26.715Z,38.20
2023-07-24T01:44:57.235Z,38.20
2023-07-24T01:47:25.566Z,38.30
2023-07-24T01:49:53.743Z,38.20
2023-07-24T01:52:21.996Z,38.30
2023-07-24T01:54:50.493Z,39.00
2023-07-24T01:57:18.739Z,38.40
2023-07-24T01:59:46.937Z,38.50
2023-07-24T02:02:16.505Z,38.50
2023-07-24T02:04:44.856Z,38.70
2023-07-24T02:07:12.985Z,38.60
2023-07-24T02:09:41.118Z,38.70
2023-07-24T02:12:09.492Z,38.80
2023-07-24T02:14:37.984Z,38.90
2023-07-24T02:17:06.486Z,38.90
2023-07-24T02:19:35.964Z,39.00
2023-07-24T02:22:04.355Z,39.10
2023-07-24T02:24:37.273Z,39.00
2023-07-24T02:27:07.128Z,39.10
2023-07-24T02:29:36.894Z,39.20
2023-07-24T02:32:05.877Z,39.20
2023-07-24T02:34:35.331Z,39.30
2023-07-24T02:37:03.460Z,39.30
2023-07-24T02:39:31.619Z,39.30
2023-07-24T02:41:59.759Z,39.40
2023-07-24T02:44:27.887Z,39.40
2023-07-24T02:46:56.241Z,39.40
2023-07-24T02:49:24.645Z,39.50
2023-07-24T02:51:54.218Z,39.60
2023-07-24T02:54:22.490Z,39.60
2023-07-24T02:56:50.613Z,39.70
2023-07-24T02:59:18.725Z,39.70
2023-07-24T03:01:46.909Z,39.80
2023-07-24T03:04:15.016Z,39.90
2023-07-24T03:06:43.183Z,39.90
2023-07-24T03:09:12.640Z,40.00
2023-07-24T03:11:40.760Z,40.10
2023-07-24T03:14:09.361Z,40.00
2023-07-24T03:16:37.473Z,40.10
2023-07-24T03:19:05.622Z,40.20
2023-07-24T03:21:34.210Z,40.20
2023-07-24T03:24:03.020Z,40.30
2023-07-24T03:26:32.679Z,40.30
2023-07-24T03:29:02.286Z,40.30
2023-07-24T03:31:30.448Z,40.40
2023-07-24T03:33:58.631Z,40.50
2023-07-24T03:36:26.848Z,40.60
2023-07-24T03:38:55.629Z,40.60
2023-07-24T03:41:23.815Z,40.60
2023-07-24T03:43:53.328Z,40.70
2023-07-24T03:46:21.478Z,40.80
2023-07-24T03:48:50.943Z,40.70
2023-07-24T03:51:19.207Z,40.80
2023-07-24T03:53:47.397Z,40.80
2023-07-24T03:56:15.530Z,40.90
2023-07-24T03:58:43.718Z,40.90
2023-07-24T04:01:13.256Z,41.00
2023-07-24T04:03:41.559Z,41.20
2023-07-24T04:06:10.855Z,41.00
2023-07-24T04:08:38.969Z,41.00
2023-07-24T04:11:07.187Z,41.10
2023-07-24T04:13:35.294Z,41.10
2023-07-24T04:16:03.493Z,41.20
2023-07-24T04:18:33.078Z,41.20
2023-07-24T04:21:01.256Z,42.00
2023-07-24T04:23:29.384Z,41.40
2023-07-24T04:25:57.526Z,41.50
2023-07-24T04:28:25.654Z,41.60
2023-07-24T04:30:53.814Z,41.50
2023-07-24T04:33:21.953Z,41.60
2023-07-24T04:35:51.687Z,41.70
2023-07-24T04:38:19.797Z,41.80
2023-07-24T04:40:47.913Z,41.80
2023-07-24T04:43:16.230Z,41.90
2023-07-24T04:45:44.368Z,42.00
2023-07-24T04:48:12.534Z,42.00
2023-07-24T04:50:40.693Z,42.10
2023-07-24T04:53:10.142Z,42.10
2023-07-24T04:55:38.278Z,42.30
2023-07-24T04:58:06.393Z,42.30
2023-07-24T05:00:34.495Z,42.30
2023-07-24T05:03:02.657Z,42.30
2023-07-24T05:05:32.587Z,42.30
2023-07-24T05:08:00.806Z,42.40
2023-07-24T05:10:30.276Z,42.40
2023-07-24T05:12:58.400Z,42.50
2023-07-24T05:15:26.498Z,42.40
2023-07-24T05:17:54.663Z,42.50
2023-07-24T05:20:22.898Z,42.60
2023-07-24T05:22:51.014Z,42.60
2023-07-24T05:25:19.194Z,42.70
2023-07-24T05:27:48.659Z,42.70
2023-07-24T05:30:16.998Z,42.70
2023-07-24T05:32:45.151Z,42.70
2023-07-24T05:35:13.308Z,42.70
2023-07-24T05:37:41.428Z,42.70
2023-07-24T05:40:10.902Z,42.70
2023-07-24T05:42:42.621Z,42.80
2023-07-24T05:45:13.115Z,42.70
2023-07-24T05:47:41.295Z,42.80
2023-07-24T05:50:10.298Z,42.90
2023-07-24T05:52:38.452Z,42.90
2023-07-24T05:55:07.532Z,42.90
2023-07-24T05:57:35.661Z,42.90
2023-07-24T06:00:04.422Z,43.00
2023-07-24T06:02:40.864Z,43.00
2023-07-24T06:05:10.073Z,43.10
2023-07-24T06:07:38.196Z,42.90
2023-07-24T06:10:07.407Z,43.00
2023-07-24T06:12:35.616Z,43.00
2023-07-24T06:15:04.410Z,42.90
2023-07-24T06:17:32.631Z,43.00
2023-07-24T06:20:02.097Z,43.00
2023-07-24T06:22:30.270Z,43.20
2023-07-24T06:24:58.385Z,43.10
2023-07-24T06:27:26.530Z,43.10
2023-07-24T06:29:56.119Z,43.20
2023-07-24T06:32:33.453Z,43.20
2023-07-24T06:35:02.977Z,43.30
2023-07-24T06:37:31.111Z,43.30
2023-07-24T06:39:59.242Z,43.30
2023-07-24T06:42:27.472Z,43.30
2023-07-24T06:44:55.593Z,43.30
2023-07-24T06:47:23.861Z,43.30
2023-07-24T06:49:52.016Z,43.30
2023-07-24T06:52:21.531Z,43.20
2023-07-24T06:54:49.790Z,43.30
2023-07-24T06:57:17.980Z,43.10
2023-07-24T06:59:46.125Z,43.00
2023-07-24T07:02:14.244Z,43.00
2023-07-24T07:04:42.349Z,42.90
2023-07-24T07:07:11.258Z,42.90
2023-07-24T07:09:40.819Z,42.90
2023-07-24T07:12:09.886Z,42.70
2023-07-24T07:14:38.005Z,42.70
2023-07-24T07:17:06.523Z,42.80
2023-07-24T07:19:34.679Z,42.70
2023-07-24T07:22:02.791Z,42.60
2023-07-24T07:24:31.004Z,42.70
2023-07-24T07:27:00.581Z,42.60
2023-07-24T07:29:28.737Z,42.50
2023-07-24T07:31:56.854Z,43.10
2023-07-24T07:34:25.080Z,42.40
2023-07-24T07:36:53.207Z,42.30
2023-07-24T07:39:21.399Z,42.10
2023-07-24T07:41:49.515Z,42.10
2023-07-24T07:44:19.020Z,41.90
2023-07-24T07:46:47.334Z,42.50
2023-07-24T07:49:15.886Z,42.00
2023-07-24T07:51:44.010Z,42.00
2023-07-24T07:54:12.124Z,42.00
2023-07-24T07:56:40.264Z,42.00
2023-07-24T07:59:08.419Z,42.00
2023-07-24T08:01:40.323Z,41.80
2023-07-24T08:04:08.484Z,41.70
2023-07-24T08:06:36.583Z,41.50
2023-07-24T08:09:04.896Z,41.20
2023-07-24T08:11:33.105Z,41.20
2023-07-24T08:14:01.244Z,40.90
2023-07-24T08:16:29.757Z,40.70
2023-07-24T08:18:59.691Z,40.70
2023-07-24T08:21:27.808Z,40.60
2023-07-24T08:23:55.943Z,40.60
2023-07-24T08:26:25.634Z,40.50
2023-07-24T08:28:53.974Z,40.40
2023-07-24T08:31:22.307Z,40.20
2023-07-24T08:33:50.697Z,39.90
2023-07-24T08:36:20.173Z,39.70
2023-07-24T08:38:49.159Z,39.60
2023-07-24T08:41:17.441Z,39.50
2023-07-24T08:43:46.725Z,39.40
2023-07-24T08:46:14.960Z,39.40
2023-07-24T08:48:44.517Z,39.30
2023-07-24T08:51:15.305Z,39.20
2023-07-24T08:53:45.809Z,39.10
2023-07-24T08:56:15.363Z,39.00
2023-07-24T08:58:44.621Z,39.00
2023-07-24T09:01:12.867Z,39.10
2023-07-24T09:03:41.142Z,39.20
2023-07-24T09:06:09.682Z,39.00
2023-07-24T09:08:40.330Z,38.90
2023-07-24T09:11:12.024Z,38.90
2023-07-24T09:13:44.443Z,38.90
2023-07-24T09:16:24.273Z,38.80
2023-07-24T09:21:31.436Z,38.60
2023-07-24T09:24:00.222Z,39.20
2023-07-24T09:26:29.952Z,38.60
2023-07-24T09:28:58.323Z,38.60
2023-07-24T09:31:37.616Z,38.50
2023-07-24T09:34:05.851Z,38.60
2023-07-24T09:36:40.036Z,38.60
2023-07-24T09:39:11.726Z,38.70
2023-07-24T09:41:42.010Z,38.50
2023-07-24T09:44:10.214Z,38.60
2023-07-24T09:46:45.969Z,38.60
2023-07-24T09:49:16.728Z,38.50
2023-07-24T09:51:49.947Z,38.50
2023-07-24T09:54:26.753Z,38.60
2023-07-24T09:57:07.239Z,38.70
2023-07-24T09:59:44.431Z,39.00
2023-07-24T10:02:14.685Z,39.00
2023-07-24T10:04:43.967Z,39.10
2023-07-24T10:07:12.706Z,39.30
2023-07-24T10:09:41.917Z,39.10
2023-07-24T10:12:12.055Z,39.20
2023-07-24T10:14:40.558Z,39.40
2023-07-24T10:17:08.672Z,39.40
2023-07-24T10:19:44.070Z,39.40
2023-07-24T10:22:19.370Z,39.30
2023-07-24T10:24:47.751Z,39.30
2023-07-24T10:27:17.247Z,39.20
2023-07-24T10:29:48.148Z,39.10
2023-07-24T10:32:20.379Z,39.30
2023-07-24T10:35:00.397Z,39.40
2023-07-24T10:37:38.783Z,38.90
2023-07-24T10:40:08.770Z,38.80
2023-07-24T10:42:38.214Z,38.70
2023-07-24T10:45:11.538Z,38.90
2023-07-24T10:47:39.693Z,38.80
2023-07-24T10:50:09.698Z,39.00
2023-07-24T10:52:37.824Z,38.90
2023-07-24T10:55:07.322Z,39.00
2023-07-24T10:57:37.046Z,38.80
2023-07-24T11:00:06.263Z,38.50
2023-07-24T11:02:34.553Z,38.20
2023-07-24T11:05:02.826Z,38.00
2023-07-24T11:07:35.213Z,37.70
2023-07-24T11:10:03.703Z,37.60
2023-07-24T11:12:33.269Z,37.70
2023-07-24T11:15:02.800Z,37.70
2023-07-24T11:17:38.650Z,37.60
2023-07-24T11:20:12.092Z,37.60
2023-07-24T11:22:45.656Z,37.70
2023-07-24T11:25:14.006Z,37.60
2023-07-24T11:27:44.981Z,37.90
2023-07-24T11:30:15.183Z,37.60
2023-07-24T11:32:44.349Z,37.60
2023-07-24T11:35:13.157Z,37.50
2023-07-24T11:37:41.603Z,37.50
2023-07-24T11:40:13.715Z,37.50
2023-07-24T11:42:45.210Z,37.40
2023-07-24T11:45:14.915Z,37.40
2023-07-24T11:47:48.036Z,37.30
2023-07-24T11:50:17.936Z,37.10
2023-07-24T11:52:49.030Z,37.70
2023-07-24T11:55:19.361Z,37.20
2023-07-24T11:57:58.629Z,37.20
2023-07-24T12:00:29.137Z,37.20
2023-07-24T12:03:05.134Z,37.30
2023-07-24T12:05:41.656Z,37.50
2023-07-24T12:08:10.734Z,37.90
2023-07-24T12:10:41.002Z,37.80
2023-07-24T12:13:09.729Z,37.80
2023-07-24T12:15:39.717Z,37.70
2023-07-24T12:18:08.310Z,37.80
2023-07-24T12:20:37.030Z,38.00
2023-07-24T12:23:05.257Z,38.30
2023-07-24T12:25:33.459Z,38.70
2023-07-24T12:28:01.632Z,38.90
2023-07-24T12:30:29.843Z,38.90
2023-07-24T12:32:59.402Z,39.10
2023-07-24T12:35:27.616Z,39.50
2023-07-24T12:37:55.751Z,39.70
2023-07-24T12:40:24.104Z,40.10
2023-07-24T12:42:52.261Z,40.40
2023-07-24T12:45:20.556Z,40.40
2023-07-24T12:47:48.664Z,40.70
2023-07-24T12:50:18.711Z,40.90
2023-07-24T12:52:47.062Z,40.90
2023-07-24T12:55:15.717Z,40.90
2023-07-24T12:57:43.869Z,41.00
2023-07-24T13:00:13.417Z,41.70
2023-07-24T13:02:41.584Z,41.50
2023-07-24T13:05:10.465Z,41.80
2023-07-24T13:07:40.222Z,41.80
2023-07-24T13:10:10.474Z,42.00
2023-07-24T13:12:38.840Z,42.10
2023-07-24T13:15:08.793Z,42.20
2023-07-24T13:17:37.446Z,42.50
2023-07-24T13:20:07.598Z,42.50
2023-07-24T13:22:35.786Z,42.50
2023-07-24T13:25:05.916Z,42.60
2023-07-24T13:27:34.079Z,42.70
2023-07-24T13:30:02.207Z,42.70
2023-07-24T13:32:31.111Z,42.80
2023-07-24T13:35:01.009Z,42.90
2023-07-24T13:37:29.207Z,43.00
2023-07-24T13:39:57.328Z,43.10
2023-07-24T13:42:26.990Z,43.30
2023-07-24T13:44:55.155Z,43.30
2023-07-24T13:47:23.335Z,43.30
2023-07-24T13:49:51.542Z,43.30
2023-07-24T13:52:19.705Z,43.40
2023-07-24T13:54:47.856Z,43.50
2023-07-24T13:57:16.102Z,43.60
2023-07-24T13:59:45.590Z,43.70
2023-07-24T14:02:14.584Z,43.80
2023-07-24T14:04:42.813Z,43.80
2023-07-24T14:07:11.131Z,43.90
2023-07-24T14:09:40.338Z,43.90
2023-07-24T14:12:10.412Z,43.70
2023-07-24T14:14:38.564Z,43.50
2023-07-24T14:17:08.303Z,43.50
2023-07-24T14:19:36.472Z,43.60
2023-07-24T14:22:04.643Z,43.50
2023-07-24T14:24:32.814Z,43.40
2023-07-24T14:27:00.949Z,43.20
2023-07-24T14:29:29.083Z,43.20
2023-07-24T14:31:57.267Z,43.30
2023-07-24T14:34:26.760Z,43.50
2023-07-24T14:36:55.098Z,43.60
2023-07-24T14:39:23.283Z,43.50
2023-07-24T14:41:51.467Z,43.40
2023-07-24T14:44:19.853Z,43.40
2023-07-24T14:46:48.045Z,43.30
2023-07-24T14:49:16.225Z,43.10
2023-07-24T14:51:45.707Z,43.00
2023-07-24T14:54:13.831Z,42.60
2023-07-24T14:56:55.043Z,42.40
2023-07-24T14:59:26.306Z,42.50
2023-07-24T15:01:54.491Z,42.40
2023-07-24T15:04:22.698Z,42.30
2023-07-24T15:06:52.188Z,42.20
2023-07-24T15:09:20.358Z,42.30
2023-07-24T15:11:48.507Z,41.90
2023-07-24T15:14:16.878Z,41.50
2023-07-24T15:16:46.411Z,41.50
2023-07-24T15:19:14.661Z,41.30
2023-07-24T15:21:42.770Z,40.90
2023-07-24T15:24:12.236Z,40.80
2023-07-24T15:26:40.325Z,40.50
2023-07-24T15:29:08.467Z,40.30
2023-07-24T15:31:37.902Z,40.10
2023-07-24T15:34:06.409Z,39.90
2023-07-24T15:36:36.146Z,40.00
2023-07-24T15:39:04.741Z,40.20
2023-07-24T15:41:34.515Z,40.30
2023-07-24T15:44:02.708Z,40.20
2023-07-24T15:46:32.879Z,40.20
2023-07-24T15:49:02.315Z,40.10
2023-07-24T15:51:32.891Z,40.10
2023-07-24T15:54:03.358Z,40.10
2023-07-24T15:56:32.820Z,40.00
2023-07-24T15:59:00.956Z,40.00
2023-07-24T16:01:29.981Z,40.00
2023-07-24T16:03:58.518Z,40.30
2023-07-24T16:06:26.646Z,40.10
2023-07-24T16:08:54.760Z,40.00
2023-07-24T16:11:22.934Z,40.60
2023-07-24T16:13:52.402Z,39.80
2023-07-24T16:16:21.315Z,39.80
2023-07-24T16:18:49.450Z,39.80
2023-07-24T16:21:17.592Z,39.50
2023-07-24T16:23:45.749Z,39.20
2023-07-24T16:26:14.253Z,39.10
2023-07-24T16:28:42.369Z,39.10
2023-07-24T16:31:11.948Z,39.00
2023-07-24T16:33:40.149Z,39.00
2023-07-24T16:36:08.809Z,39.10
2023-07-24T16:38:36.947Z,39.00
2023-07-24T16:41:05.078Z,39.10
2023-07-24T16:43:38.935Z,39.10
2023-07-24T16:46:25.851Z,39.00
2023-07-24T16:48:55.957Z,39.00
2023-07-24T16:51:24.115Z,38.80
2023-07-24T16:53:52.310Z,38.80
2023-07-24T16:56:20.525Z,38.70
2023-07-24T16:58:48.697Z,38.70
2023-07-24T17:01:16.847Z,38.60
2023-07-24T17:03:45.009Z,38.60
2023-07-24T17:06:14.496Z,38.60
2023-07-24T17:08:42.676Z,38.60
2023-07-24T17:11:10.840Z,38.70
2023-07-24T17:13:41.972Z,38.80
2023-07-24T17:16:10.449Z,38.80
2023-07-24T17:18:38.639Z,38.80
2023-07-24T17:21:06.773Z,38.80
2023-07-24T17:23:36.398Z,38.80
2023-07-24T17:26:04.672Z,38.90
2023-07-24T17:28:32.822Z,38.90
2023-07-24T17:31:01.018Z,39.20
2023-07-24T17:33:29.184Z,39.10
2023-07-24T17:35:57.448Z,39.10
2023-07-24T17:38:25.670Z,39.00
2023-07-24T17:40:56.331Z,39.20
2023-07-24T17:43:24.531Z,39.20
2023-07-24T17:45:52.637Z,39.30
2023-07-24T17:48:20.759Z,39.40
2023-07-24T17:50:48.918Z,39.50
2023-07-24T17:53:17.053Z,39.70
2023-07-24T17:55:45.154Z,39.80
2023-07-24T17:58:14.638Z,39.90
2023-07-24T18:00:45.959Z,39.90
2023-07-24T18:03:14.896Z,39.90
2023-07-24T18:05:43.282Z,40.00
2023-07-24T18:08:11.419Z,40.00
2023-07-24T18:10:39.632Z,40.00
2023-07-24T18:13:07.760Z,40.20
2023-07-24T18:15:37.545Z,40.20
2023-07-24T18:18:05.752Z,40.30
2023-07-24T18:20:34.128Z,40.30
2023-07-24T18:23:02.240Z,40.20
2023-07-24T18:25:30.404Z,40.20
2023-07-24T18:27:58.539Z,40.20
2023-07-24T18:30:29.936Z,40.20
2023-07-24T18:33:00.503Z,40.30
2023-07-24T18:35:28.788Z,40.40
2023-07-24T18:37:58.933Z,40.30
2023-07-24T18:40:27.146Z,40.30
2023-07-24T18:42:55.351Z,40.40
2023-07-24T18:45:23.784Z,40.40
2023-07-24T18:47:51.953Z,40.50
2023-07-24T18:50:21.651Z,40.40
2023-07-24T18:52:49.782Z,40.20
2023-07-24T18:55:18.002Z,40.10
2023-07-24T18:57:46.151Z,40.10
2023-07-24T19:00:16.519Z,40.10
2023-07-24T19:02:44.686Z,40.20
2023-07-24T19:05:13.094Z,40.20
2023-07-24T19:07:42.569Z,40.30
2023-07-24T19:10:13.291Z,40.40
2023-07-24T19:12:42.024Z,40.40
2023-07-24T19:15:11.552Z,40.40
2023-07-24T19:17:41.892Z,40.40
2023-07-24T19:20:11.380Z,40.50
2023-07-24T19:22:39.836Z,40.60
2023-07-24T19:25:10.223Z,40.40
2023-07-24T19:27:38.367Z,40.40
2023-07-24T19:30:08.804Z,40.30
2023-07-24T19:32:40.391Z,40.40
2023-07-24T19:35:10.465Z,40.40
2023-07-24T19:37:38.628Z,40.50
2023-07-24T19:40:10.029Z,40.40
2023-07-24T19:42:38.216Z,40.50
2023-07-24T19:45:09.107Z,40.50
2023-07-24T19:47:37.365Z,40.50
2023-07-24T19:50:07.307Z,40.50
2023-07-24T19:52:35.588Z,40.60
2023-07-24T19:55:03.752Z,40.60
2023-07-24T19:57:33.755Z,40.70
2023-07-24T20:00:01.868Z,40.80
2023-07-24T20:02:33.028Z,40.80
2023-07-24T20:05:01.199Z,40.80
2023-07-24T20:07:29.357Z,40.90
2023-07-24T20:09:57.513Z,41.00
2023-07-24T20:12:25.633Z,41.10
2023-07-24T20:14:55.095Z,41.10
2023-07-24T20:17:23.253Z,41.10
2023-07-24T20:19:51.373Z,41.30
2023-07-24T20:22:19.523Z,41.40
2023-07-24T20:24:47.682Z,41.60
2023-07-24T20:27:15.839Z,41.70
2023-07-24T20:29:44.041Z,41.90
2023-07-24T20:32:15.065Z,42.00
2023-07-24T20:34:43.332Z,42.10
2023-07-24T20:37:11.629Z,42.10
2023-07-24T20:39:39.813Z,42.30
2023-07-24T20:42:08.315Z,42.50
2023-07-24T20:44:36.525Z,42.50
2023-07-24T20:47:05.371Z,42.60
2023-07-24T20:49:36.195Z,42.80
2023-07-24T20:52:04.850Z,42.90
2023-07-24T20:54:33.166Z,43.00
2023-07-24T20:57:01.424Z,43.30
2023-07-24T20:59:30.286Z,43.10
2023-07-24T21:01:58.508Z,43.30
2023-07-24T21:04:26.998Z,43.30
2023-07-24T21:06:56.635Z,43.40
2023-07-24T21:09:24.829Z,43.50
2023-07-24T21:11:53.059Z,43.60
2023-07-24T21:14:21.374Z,43.70
2023-07-24T21:16:49.985Z,43.70
2023-07-24T21:19:18.206Z,43.80
2023-07-24T21:21:47.009Z,43.70
2023-07-24T21:24:16.878Z,43.90
2023-07-24T21:26:45.202Z,44.00
2023-07-24T21:29:13.369Z,43.90
2023-07-24T21:31:41.605Z,44.10
2023-07-24T21:34:09.858Z,44.10
2023-07-24T21:36:38.129Z,44.10
2023-07-24T21:39:06.406Z,44.10
2023-07-24T21:41:36.272Z,44.20
2023-07-24T21:44:05.000Z,44.30
2023-07-24T21:46:33.409Z,44.30
2023-07-24T21:49:01.658Z,44.30
2023-07-24T21:51:29.955Z,44.30
2023-07-24T21:53:58.401Z,44.40
2023-07-24T21:56:26.546Z,44.40
2023-07-24T21:58:55.995Z,44.40
2023-07-24T22:01:24.215Z,44.40
2023-07-24T22:03:52.656Z,44.40
2023-07-24T22:06:20.811Z,44.30
2023-07-24T22:08:49.047Z,45.00
2023-07-24T22:11:18.727Z,44.30
2023-07-24T22:13:47.837Z,44.30
2023-07-24T22:16:17.483Z,44.30
2023-07-24T22:18:45.664Z,44.40
2023-07-24T22:21:13.789Z,44.30
2023-07-24T22:23:41.932Z,44.50
2023-07-24T22:26:10.061Z,44.50
2023-07-24T22:28:38.202Z,44.40
2023-07-24T22:31:10.188Z,44.40
2023-07-24T22:33:39.974Z,44.70
2023-07-24T22:36:08.181Z,44.60
2023-07-24T22:38:36.318Z,44.60
2023-07-24T22:41:12.271Z,44.60
2023-07-24T22:43:40.715Z,45.00
2023-07-24T22:46:08.972Z,44.70
2023-07-24T22:48:37.204Z,44.80
2023-07-24T22:51:06.698Z,44.80
2023-07-24T22:53:34.872Z,44.90
2023-07-24T22:56:03.004Z,44.90
2023-07-24T22:58:31.114Z,45.00
2023-07-24T23:00:59.320Z,45.10
2023-07-24T23:03:27.604Z,45.20
2023-07-24T23:05:55.767Z,45.20
2023-07-24T23:08:25.260Z,45.30
2023-07-24T23:10:53.381Z,45.50
2023-07-24T23:13:22.087Z,45.40
2023-07-24T23:15:50.204Z,45.40
2023-07-24T23:18:18.340Z,45.40
2023-07-24T23:20:46.484Z,45.40
2023-07-24T23:23:14.608Z,45.40
2023-07-24T23:25:44.197Z,45.50
2023-07-24T23:28:12.323Z,45.60
2023-07-24T23:30:43.622Z,45.60
2023-07-24T23:33:11.793Z,45.70
2023-07-24T23:35:39.940Z,45.70
2023-07-24T23:38:08.203Z,45.70
2023-07-24T23:40:36.372Z,45.80
2023-07-24T23:43:05.900Z,45.90
2023-07-24T23:45:34.685Z,45.80
2023-07-24T23:48:02.985Z,45.80
2023-07-24T23:50:31.115Z,45.80
2023-07-24T23:52:59.973Z,45.80
2023-07-24T23:55:31.576Z,45.90
2023-07-24T23:57:59.754Z,45.90
